sensor_id;sensor_type;location;lat;lon;timestamp;P1;durP1;ratioP1;P2;durP2;ratioP2
14209;SDS011;7188;56.070;12.698;2023-04-25T00:01:20;2.50;;;2.30;;
14209;SDS011;7188;56.070;12.698;2023-04-25T00:06:34;1.87;;;1.77;;
14209;SDS011;7188;56.070;12.698;2023-04-25T00:09:01;4.30;;;2.47;;
14209;SDS011;7188;56.070;12.698;2023-04-25T00:11:28;5.87;;;2.63;;
14209;SDS011;7188;56.070;12.698;2023-04-25T00:13:56;5.03;;;2.83;;
14209;SDS011;7188;56.070;12.698;2023-04-25T00:16:22;5.70;;;3.70;;
14209;SDS011;7188;56.070;12.698;2023-04-25T00:18:48;4.60;;;4.20;;
14209;SDS011;7188;56.070;12.698;2023-04-25T00:21:17;5.47;;;4.27;;
14209;SDS011;7188;56.070;12.698;2023-04-25T00:23:44;5.57;;;4.17;;
14209;SDS011;7188;56.070;12.698;2023-04-25T00:26:11;7.37;;;4.33;;
14209;SDS011;7188;56.070;12.698;2023-04-25T00:28:37;4.30;;;3.90;;
14209;SDS011;7188;56.070;12.698;2023-04-25T00:31:04;4.67;;;3.57;;
14209;SDS011;7188;56.070;12.698;2023-04-25T00:33:29;6.20;;;3.53;;
14209;SDS011;7188;56.070;12.698;2023-04-25T00:35:55;8.60;;;4.20;;
14209;SDS011;7188;56.070;12.698;2023-04-25T00:38:21;6.87;;;4.73;;
14209;SDS011;7188;56.070;12.698;2023-04-25T00:40:47;8.00;;;4.20;;
14209;SDS011;7188;56.070;12.698;2023-04-25T00:43:13;7.57;;;5.07;;
14209;SDS011;7188;56.070;12.698;2023-04-25T00:45:39;7.13;;;4.50;;
14209;SDS011;7188;56.070;12.698;2023-04-25T00:48:05;6.07;;;5.13;;
14209;SDS011;7188;56.070;12.698;2023-04-25T00:50:34;6.17;;;5.40;;
14209;SDS011;7188;56.070;12.698;2023-04-25T00:53:01;7.13;;;4.77;;
14209;SDS011;7188;56.070;12.698;2023-04-25T00:55:28;7.90;;;5.13;;
14209;SDS011;7188;56.070;12.698;2023-04-25T00:57:54;6.43;;;4.37;;
14209;SDS011;7188;56.070;12.698;2023-04-25T01:00:19;7.47;;;5.10;;
14209;SDS011;7188;56.070;12.698;2023-04-25T01:02:45;7.20;;;5.50;;
14209;SDS011;7188;56.070;12.698;2023-04-25T01:05:11;7.80;;;5.17;;
14209;SDS011;7188;56.070;12.698;2023-04-25T01:07:38;8.20;;;4.87;;
14209;SDS011;7188;56.070;12.698;2023-04-25T01:10:04;6.30;;;4.30;;
14209;SDS011;7188;56.070;12.698;2023-04-25T01:12:31;5.43;;;4.87;;
14209;SDS011;7188;56.070;12.698;2023-04-25T01:14:56;6.17;;;4.70;;
14209;SDS011;7188;56.070;12.698;2023-04-25T01:17:22;6.83;;;5.17;;
14209;SDS011;7188;56.070;12.698;2023-04-25T01:19:49;5.60;;;4.17;;
14209;SDS011;7188;56.070;12.698;2023-04-25T01:22:16;5.83;;;4.33;;
14209;SDS011;7188;56.070;12.698;2023-04-25T01:24:42;6.43;;;4.37;;
14209;SDS011;7188;56.070;12.698;2023-04-25T01:27:08;7.93;;;4.27;;
14209;SDS011;7188;56.070;12.698;2023-04-25T01:29:34;7.30;;;3.70;;
14209;SDS011;7188;56.070;12.698;2023-04-25T01:32:01;6.77;;;3.87;;
14209;SDS011;7188;56.070;12.698;2023-04-25T01:34:26;5.27;;;3.00;;
14209;SDS011;7188;56.070;12.698;2023-04-25T01:36:52;4.23;;;2.87;;
14209;SDS011;7188;56.070;12.698;2023-04-25T01:39:18;4.03;;;2.90;;
14209;SDS011;7188;56.070;12.698;2023-04-25T01:41:48;2.83;;;2.57;;
14209;SDS011;7188;56.070;12.698;2023-04-25T01:44:14;4.97;;;2.90;;
14209;SDS011;7188;56.070;12.698;2023-04-25T01:46:40;3.87;;;3.00;;
14209;SDS011;7188;56.070;12.698;2023-04-25T01:49:06;4.07;;;2.80;;
14209;SDS011;7188;56.070;12.698;2023-04-25T01:51:32;4.10;;;2.60;;
14209;SDS011;7188;56.070;12.698;2023-04-25T01:53:58;3.00;;;2.67;;
14209;SDS011;7188;56.070;12.698;2023-04-25T01:56:24;4.40;;;3.13;;
14209;SDS011;7188;56.070;12.698;2023-04-25T01:58:50;4.63;;;3.00;;
14209;SDS011;7188;56.070;12.698;2023-04-25T02:01:16;4.07;;;2.20;;
14209;SDS011;7188;56.070;12.698;2023-04-25T02:03:42;3.97;;;2.33;;
14209;SDS011;7188;56.070;12.698;2023-04-25T02:06:08;3.47;;;2.63;;
14209;SDS011;7188;56.070;12.698;2023-04-25T02:08:34;4.67;;;2.70;;
14209;SDS011;7188;56.070;12.698;2023-04-25T02:10:59;2.90;;;2.70;;
14209;SDS011;7188;56.070;12.698;2023-04-25T02:13:25;4.83;;;3.17;;
14209;SDS011;7188;56.070;12.698;2023-04-25T02:15:51;7.37;;;3.13;;
14209;SDS011;7188;56.070;12.698;2023-04-25T02:18:16;5.10;;;3.27;;
14209;SDS011;7188;56.070;12.698;2023-04-25T02:20:43;5.73;;;2.93;;
14209;SDS011;7188;56.070;12.698;2023-04-25T02:23:09;3.23;;;2.80;;
14209;SDS011;7188;56.070;12.698;2023-04-25T02:25:34;4.60;;;3.27;;
14209;SDS011;7188;56.070;12.698;2023-04-25T02:28:00;4.13;;;3.03;;
14209;SDS011;7188;56.070;12.698;2023-04-25T02:30:26;3.23;;;2.90;;
14209;SDS011;7188;56.070;12.698;2023-04-25T02:32:51;2.83;;;2.63;;
14209;SDS011;7188;56.070;12.698;2023-04-25T02:35:17;3.30;;;2.77;;
14209;SDS011;7188;56.070;12.698;2023-04-25T02:37:43;5.63;;;3.00;;
14209;SDS011;7188;56.070;12.698;2023-04-25T02:40:09;6.37;;;1.60;;
14209;SDS011;7188;56.070;12.698;2023-04-25T02:42:35;6.67;;;2.57;;
14209;SDS011;7188;56.070;12.698;2023-04-25T02:45:01;2.57;;;2.13;;
14209;SDS011;7188;56.070;12.698;2023-04-25T02:47:27;4.73;;;2.77;;
14209;SDS011;7188;56.070;12.698;2023-04-25T02:49:53;7.20;;;3.00;;
14209;SDS011;7188;56.070;12.698;2023-04-25T02:52:18;10.87;;;3.70;;
14209;SDS011;7188;56.070;12.698;2023-04-25T02:54:44;7.37;;;3.73;;
14209;SDS011;7188;56.070;12.698;2023-04-25T02:57:10;7.57;;;3.77;;
14209;SDS011;7188;56.070;12.698;2023-04-25T02:59:36;9.83;;;3.97;;
14209;SDS011;7188;56.070;12.698;2023-04-25T03:02:01;6.53;;;3.67;;
14209;SDS011;7188;56.070;12.698;2023-04-25T03:04:27;8.90;;;4.00;;
14209;SDS011;7188;56.070;12.698;2023-04-25T03:06:53;5.47;;;2.77;;
14209;SDS011;7188;56.070;12.698;2023-04-25T03:09:31;5.27;;;2.90;;
14209;SDS011;7188;56.070;12.698;2023-04-25T03:11:56;3.53;;;2.70;;
14209;SDS011;7188;56.070;12.698;2023-04-25T03:14:22;3.80;;;2.27;;
14209;SDS011;7188;56.070;12.698;2023-04-25T03:16:48;7.70;;;2.40;;
14209;SDS011;7188;56.070;12.698;2023-04-25T03:19:13;3.63;;;2.03;;
14209;SDS011;7188;56.070;12.698;2023-04-25T03:21:41;6.13;;;2.40;;
14209;SDS011;7188;56.070;12.698;2023-04-25T03:24:06;4.67;;;2.70;;
14209;SDS011;7188;56.070;12.698;2023-04-25T03:26:32;6.83;;;2.83;;
14209;SDS011;7188;56.070;12.698;2023-04-25T03:28:57;6.23;;;3.40;;
14209;SDS011;7188;56.070;12.698;2023-04-25T03:31:23;4.27;;;2.67;;
14209;SDS011;7188;56.070;12.698;2023-04-25T03:33:49;4.13;;;2.50;;
14209;SDS011;7188;56.070;12.698;2023-04-25T03:36:14;6.20;;;3.67;;
14209;SDS011;7188;56.070;12.698;2023-04-25T03:38:40;5.10;;;2.03;;
14209;SDS011;7188;56.070;12.698;2023-04-25T03:41:06;5.10;;;3.47;;
14209;SDS011;7188;56.070;12.698;2023-04-25T03:43:32;8.43;;;3.10;;
14209;SDS011;7188;56.070;12.698;2023-04-25T03:45:58;7.13;;;2.90;;
14209;SDS011;7188;56.070;12.698;2023-04-25T03:48:24;5.57;;;2.77;;
14209;SDS011;7188;56.070;12.698;2023-04-25T03:50:51;3.17;;;2.30;;
14209;SDS011;7188;56.070;12.698;2023-04-25T03:53:17;5.10;;;2.57;;
14209;SDS011;7188;56.070;12.698;2023-04-25T03:55:42;4.70;;;2.90;;
14209;SDS011;7188;56.070;12.698;2023-04-25T03:58:08;6.33;;;2.60;;
14209;SDS011;7188;56.070;12.698;2023-04-25T04:00:34;3.30;;;2.70;;
14209;SDS011;7188;56.070;12.698;2023-04-25T04:03:00;4.07;;;2.17;;
14209;SDS011;7188;56.070;12.698;2023-04-25T04:05:29;2.47;;;2.03;;
14209;SDS011;7188;56.070;12.698;2023-04-25T04:07:55;3.40;;;2.07;;
14209;SDS011;7188;56.070;12.698;2023-04-25T04:10:20;2.93;;;1.90;;
14209;SDS011;7188;56.070;12.698;2023-04-25T04:12:46;2.80;;;1.80;;
14209;SDS011;7188;56.070;12.698;2023-04-25T04:15:12;2.83;;;1.57;;
14209;SDS011;7188;56.070;12.698;2023-04-25T04:17:38;2.70;;;1.60;;
14209;SDS011;7188;56.070;12.698;2023-04-25T04:20:03;2.10;;;1.70;;
14209;SDS011;7188;56.070;12.698;2023-04-25T04:22:30;2.60;;;1.50;;
14209;SDS011;7188;56.070;12.698;2023-04-25T04:24:56;3.97;;;1.50;;
14209;SDS011;7188;56.070;12.698;2023-04-25T04:27:22;4.30;;;1.60;;
14209;SDS011;7188;56.070;12.698;2023-04-25T04:29:48;3.23;;;1.80;;
14209;SDS011;7188;56.070;12.698;2023-04-25T04:32:15;3.70;;;1.73;;
14209;SDS011;7188;56.070;12.698;2023-04-25T04:34:41;1.60;;;1.33;;
14209;SDS011;7188;56.070;12.698;2023-04-25T04:37:06;2.97;;;1.43;;
14209;SDS011;7188;56.070;12.698;2023-04-25T04:39:32;1.93;;;1.70;;
14209;SDS011;7188;56.070;12.698;2023-04-25T04:41:59;2.90;;;1.53;;
14209;SDS011;7188;56.070;12.698;2023-04-25T04:44:26;2.17;;;1.70;;
14209;SDS011;7188;56.070;12.698;2023-04-25T04:46:53;6.20;;;2.00;;
14209;SDS011;7188;56.070;12.698;2023-04-25T04:49:19;4.23;;;2.20;;
14209;SDS011;7188;56.070;12.698;2023-04-25T04:51:45;3.53;;;1.63;;
14209;SDS011;7188;56.070;12.698;2023-04-25T04:54:10;7.00;;;1.90;;
14209;SDS011;7188;56.070;12.698;2023-04-25T04:56:36;5.67;;;2.03;;
14209;SDS011;7188;56.070;12.698;2023-04-25T04:59:01;7.70;;;2.73;;
14209;SDS011;7188;56.070;12.698;2023-04-25T05:01:27;9.37;;;2.90;;
14209;SDS011;7188;56.070;12.698;2023-04-25T05:03:54;8.33;;;2.80;;
14209;SDS011;7188;56.070;12.698;2023-04-25T05:06:25;9.20;;;3.00;;
14209;SDS011;7188;56.070;12.698;2023-04-25T05:08:51;5.50;;;2.23;;
14209;SDS011;7188;56.070;12.698;2023-04-25T05:11:18;8.73;;;2.47;;
14209;SDS011;7188;56.070;12.698;2023-04-25T05:13:44;9.17;;;2.77;;
14209;SDS011;7188;56.070;12.698;2023-04-25T05:16:19;7.80;;;2.90;;
14209;SDS011;7188;56.070;12.698;2023-04-25T05:18:46;9.37;;;2.80;;
14209;SDS011;7188;56.070;12.698;2023-04-25T05:21:12;9.47;;;3.30;;
14209;SDS011;7188;56.070;12.698;2023-04-25T05:23:38;11.00;;;3.53;;
14209;SDS011;7188;56.070;12.698;2023-04-25T05:26:04;10.57;;;2.57;;
14209;SDS011;7188;56.070;12.698;2023-04-25T05:28:30;13.43;;;3.50;;
14209;SDS011;7188;56.070;12.698;2023-04-25T05:30:56;11.97;;;3.77;;
14209;SDS011;7188;56.070;12.698;2023-04-25T05:36:09;10.93;;;3.43;;
14209;SDS011;7188;56.070;12.698;2023-04-25T05:38:35;9.27;;;3.60;;
14209;SDS011;7188;56.070;12.698;2023-04-25T05:41:00;12.67;;;3.73;;
14209;SDS011;7188;56.070;12.698;2023-04-25T05:43:26;13.40;;;3.50;;
14209;SDS011;7188;56.070;12.698;2023-04-25T05:45:51;17.20;;;4.13;;
14209;SDS011;7188;56.070;12.698;2023-04-25T05:48:17;20.07;;;3.70;;
14209;SDS011;7188;56.070;12.698;2023-04-25T05:50:43;12.70;;;3.80;;
14209;SDS011;7188;56.070;12.698;2023-04-25T05:53:08;11.10;;;4.07;;
14209;SDS011;7188;56.070;12.698;2023-04-25T05:55:34;13.83;;;4.13;;
14209;SDS011;7188;56.070;12.698;2023-04-25T05:57:59;8.63;;;4.80;;
14209;SDS011;7188;56.070;12.698;2023-04-25T06:00:25;14.37;;;3.53;;
14209;SDS011;7188;56.070;12.698;2023-04-25T06:02:51;14.23;;;4.30;;
14209;SDS011;7188;56.070;12.698;2023-04-25T06:05:16;13.30;;;3.73;;
14209;SDS011;7188;56.070;12.698;2023-04-25T06:07:42;12.90;;;3.70;;
14209;SDS011;7188;56.070;12.698;2023-04-25T06:10:08;9.87;;;3.67;;
14209;SDS011;7188;56.070;12.698;2023-04-25T06:12:34;12.73;;;3.60;;
14209;SDS011;7188;56.070;12.698;2023-04-25T06:15:00;16.83;;;3.73;;
14209;SDS011;7188;56.070;12.698;2023-04-25T06:17:26;11.13;;;3.40;;
14209;SDS011;7188;56.070;12.698;2023-04-25T06:19:51;10.83;;;3.37;;
14209;SDS011;7188;56.070;12.698;2023-04-25T06:22:17;14.43;;;4.20;;
14209;SDS011;7188;56.070;12.698;2023-04-25T06:24:43;12.27;;;3.70;;
14209;SDS011;7188;56.070;12.698;2023-04-25T06:27:08;9.10;;;3.13;;
14209;SDS011;7188;56.070;12.698;2023-04-25T06:29:34;11.43;;;3.40;;
14209;SDS011;7188;56.070;12.698;2023-04-25T06:32:00;12.53;;;3.47;;
14209;SDS011;7188;56.070;12.698;2023-04-25T06:34:25;12.40;;;3.87;;
14209;SDS011;7188;56.070;12.698;2023-04-25T06:36:51;10.83;;;3.07;;
14209;SDS011;7188;56.070;12.698;2023-04-25T06:39:16;11.10;;;2.60;;
14209;SDS011;7188;56.070;12.698;2023-04-25T06:41:42;13.53;;;3.70;;
14209;SDS011;7188;56.070;12.698;2023-04-25T06:44:08;10.70;;;3.07;;
14209;SDS011;7188;56.070;12.698;2023-04-25T06:46:33;6.90;;;1.90;;
14209;SDS011;7188;56.070;12.698;2023-04-25T06:48:59;9.93;;;2.53;;
14209;SDS011;7188;56.070;12.698;2023-04-25T06:51:25;6.30;;;2.20;;
14209;SDS011;7188;56.070;12.698;2023-04-25T06:53:53;8.30;;;1.93;;
14209;SDS011;7188;56.070;12.698;2023-04-25T06:56:18;7.80;;;2.00;;
14209;SDS011;7188;56.070;12.698;2023-04-25T06:58:44;8.03;;;1.93;;
14209;SDS011;7188;56.070;12.698;2023-04-25T07:01:10;9.30;;;2.33;;
14209;SDS011;7188;56.070;12.698;2023-04-25T07:03:35;6.80;;;1.47;;
14209;SDS011;7188;56.070;12.698;2023-04-25T07:06:02;13.17;;;2.03;;
14209;SDS011;7188;56.070;12.698;2023-04-25T07:08:28;5.97;;;1.73;;
14209;SDS011;7188;56.070;12.698;2023-04-25T07:10:54;4.87;;;1.87;;
14209;SDS011;7188;56.070;12.698;2023-04-25T07:13:20;11.30;;;2.10;;
14209;SDS011;7188;56.070;12.698;2023-04-25T07:15:46;6.17;;;1.80;;
14209;SDS011;7188;56.070;12.698;2023-04-25T07:18:13;5.67;;;1.63;;
14209;SDS011;7188;56.070;12.698;2023-04-25T07:20:38;6.93;;;2.30;;
14209;SDS011;7188;56.070;12.698;2023-04-25T07:23:04;6.87;;;1.80;;
14209;SDS011;7188;56.070;12.698;2023-04-25T07:25:30;6.00;;;1.70;;
14209;SDS011;7188;56.070;12.698;2023-04-25T07:27:57;9.87;;;2.10;;
14209;SDS011;7188;56.070;12.698;2023-04-25T07:30:23;10.00;;;1.87;;
14209;SDS011;7188;56.070;12.698;2023-04-25T07:32:49;6.60;;;1.53;;
14209;SDS011;7188;56.070;12.698;2023-04-25T07:35:15;3.13;;;1.73;;
14209;SDS011;7188;56.070;12.698;2023-04-25T07:37:41;5.20;;;2.03;;
14209;SDS011;7188;56.070;12.698;2023-04-25T07:40:07;5.47;;;1.60;;
14209;SDS011;7188;56.070;12.698;2023-04-25T07:42:34;6.50;;;1.67;;
14209;SDS011;7188;56.070;12.698;2023-04-25T07:45:00;6.13;;;1.60;;
14209;SDS011;7188;56.070;12.698;2023-04-25T07:47:26;8.97;;;2.03;;
14209;SDS011;7188;56.070;12.698;2023-04-25T07:49:52;4.60;;;1.20;;
14209;SDS011;7188;56.070;12.698;2023-04-25T07:52:17;3.73;;;0.90;;
14209;SDS011;7188;56.070;12.698;2023-04-25T07:54:43;4.23;;;1.30;;
14209;SDS011;7188;56.070;12.698;2023-04-25T07:57:09;6.73;;;1.20;;
14209;SDS011;7188;56.070;12.698;2023-04-25T07:59:34;5.00;;;1.37;;
14209;SDS011;7188;56.070;12.698;2023-04-25T08:02:00;5.07;;;1.37;;
14209;SDS011;7188;56.070;12.698;2023-04-25T08:04:26;3.73;;;1.33;;
14209;SDS011;7188;56.070;12.698;2023-04-25T08:06:52;5.30;;;1.30;;
14209;SDS011;7188;56.070;12.698;2023-04-25T08:09:18;2.70;;;1.00;;
14209;SDS011;7188;56.070;12.698;2023-04-25T08:11:44;2.90;;;0.90;;
14209;SDS011;7188;56.070;12.698;2023-04-25T08:14:11;3.93;;;0.83;;
14209;SDS011;7188;56.070;12.698;2023-04-25T08:16:37;1.23;;;1.13;;
14209;SDS011;7188;56.070;12.698;2023-04-25T08:19:02;2.67;;;0.90;;
14209;SDS011;7188;56.070;12.698;2023-04-25T08:21:28;3.47;;;0.97;;
14209;SDS011;7188;56.070;12.698;2023-04-25T08:23:54;4.23;;;1.03;;
14209;SDS011;7188;56.070;12.698;2023-04-25T08:26:20;5.20;;;1.20;;
14209;SDS011;7188;56.070;12.698;2023-04-25T08:28:45;3.77;;;0.90;;
14209;SDS011;7188;56.070;12.698;2023-04-25T08:31:11;4.17;;;0.77;;
14209;SDS011;7188;56.070;12.698;2023-04-25T08:33:37;2.17;;;0.60;;
14209;SDS011;7188;56.070;12.698;2023-04-25T08:36:03;3.47;;;1.00;;
14209;SDS011;7188;56.070;12.698;2023-04-25T08:38:28;0.93;;;0.53;;
14209;SDS011;7188;56.070;12.698;2023-04-25T08:40:54;3.23;;;0.97;;
14209;SDS011;7188;56.070;12.698;2023-04-25T08:43:22;1.07;;;0.80;;
14209;SDS011;7188;56.070;12.698;2023-04-25T08:45:50;2.50;;;0.97;;
14209;SDS011;7188;56.070;12.698;2023-04-25T08:48:19;1.20;;;0.90;;
14209;SDS011;7188;56.070;12.698;2023-04-25T08:50:49;2.70;;;1.10;;
14209;SDS011;7188;56.070;12.698;2023-04-25T08:53:17;2.30;;;1.30;;
14209;SDS011;7188;56.070;12.698;2023-04-25T08:55:52;2.50;;;1.10;;
14209;SDS011;7188;56.070;12.698;2023-04-25T08:58:19;2.80;;;1.43;;
14209;SDS011;7188;56.070;12.698;2023-04-25T09:00:46;2.87;;;1.20;;
14209;SDS011;7188;56.070;12.698;2023-04-25T09:03:13;6.57;;;2.03;;
14209;SDS011;7188;56.070;12.698;2023-04-25T09:05:40;8.40;;;2.10;;
14209;SDS011;7188;56.070;12.698;2023-04-25T09:08:06;4.63;;;1.93;;
14209;SDS011;7188;56.070;12.698;2023-04-25T09:10:32;6.57;;;1.70;;
14209;SDS011;7188;56.070;12.698;2023-04-25T09:13:08;4.40;;;1.63;;
14209;SDS011;7188;56.070;12.698;2023-04-25T09:15:55;4.10;;;1.60;;
14209;SDS011;7188;56.070;12.698;2023-04-25T09:18:29;6.73;;;2.33;;
14209;SDS011;7188;56.070;12.698;2023-04-25T09:20:58;9.33;;;2.73;;
14209;SDS011;7188;56.070;12.698;2023-04-25T09:26:07;3.43;;;1.90;;
14209;SDS011;7188;56.070;12.698;2023-04-25T09:28:34;3.80;;;1.60;;
14209;SDS011;7188;56.070;12.698;2023-04-25T09:31:00;9.10;;;2.97;;
14209;SDS011;7188;56.070;12.698;2023-04-25T09:33:29;7.77;;;2.17;;
14209;SDS011;7188;56.070;12.698;2023-04-25T09:38:39;10.17;;;2.53;;
14209;SDS011;7188;56.070;12.698;2023-04-25T09:41:07;8.70;;;3.10;;
14209;SDS011;7188;56.070;12.698;2023-04-25T09:43:33;10.80;;;2.70;;
14209;SDS011;7188;56.070;12.698;2023-04-25T09:46:00;7.93;;;2.53;;
14209;SDS011;7188;56.070;12.698;2023-04-25T09:48:26;7.90;;;2.23;;
14209;SDS011;7188;56.070;12.698;2023-04-25T09:53:28;7.27;;;2.13;;
14209;SDS011;7188;56.070;12.698;2023-04-25T09:55:54;11.70;;;2.37;;
14209;SDS011;7188;56.070;12.698;2023-04-25T09:58:24;9.17;;;2.27;;
14209;SDS011;7188;56.070;12.698;2023-04-25T10:00:54;10.03;;;2.87;;
14209;SDS011;7188;56.070;12.698;2023-04-25T10:03:24;5.87;;;2.40;;
14209;SDS011;7188;56.070;12.698;2023-04-25T10:05:51;12.80;;;2.60;;
14209;SDS011;7188;56.070;12.698;2023-04-25T10:08:18;11.93;;;3.57;;
14209;SDS011;7188;56.070;12.698;2023-04-25T10:10:45;11.27;;;3.30;;
14209;SDS011;7188;56.070;12.698;2023-04-25T10:13:12;17.00;;;3.53;;
14209;SDS011;7188;56.070;12.698;2023-04-25T10:15:39;11.33;;;2.53;;
14209;SDS011;7188;56.070;12.698;2023-04-25T10:18:06;13.10;;;3.63;;
14209;SDS011;7188;56.070;12.698;2023-04-25T10:20:32;14.53;;;2.93;;
14209;SDS011;7188;56.070;12.698;2023-04-25T10:22:58;12.17;;;2.73;;
14209;SDS011;7188;56.070;12.698;2023-04-25T10:25:35;13.27;;;2.97;;
14209;SDS011;7188;56.070;12.698;2023-04-25T10:28:02;12.47;;;3.13;;
14209;SDS011;7188;56.070;12.698;2023-04-25T10:30:28;11.93;;;3.50;;
14209;SDS011;7188;56.070;12.698;2023-04-25T10:32:55;11.50;;;3.70;;
14209;SDS011;7188;56.070;12.698;2023-04-25T10:35:24;9.57;;;2.67;;
14209;SDS011;7188;56.070;12.698;2023-04-25T10:38:04;12.57;;;3.20;;
14209;SDS011;7188;56.070;12.698;2023-04-25T10:40:33;16.60;;;3.17;;
14209;SDS011;7188;56.070;12.698;2023-04-25T10:45:56;13.50;;;4.13;;
14209;SDS011;7188;56.070;12.698;2023-04-25T10:48:24;8.47;;;2.80;;
14209;SDS011;7188;56.070;12.698;2023-04-25T10:51:06;15.37;;;3.20;;
14209;SDS011;7188;56.070;12.698;2023-04-25T10:53:35;11.30;;;3.47;;
14209;SDS011;7188;56.070;12.698;2023-04-25T10:56:11;16.53;;;3.97;;
14209;SDS011;7188;56.070;12.698;2023-04-25T10:58:44;15.30;;;3.33;;
14209;SDS011;7188;56.070;12.698;2023-04-25T11:01:14;12.57;;;3.03;;
14209;SDS011;7188;56.070;12.698;2023-04-25T11:03:44;13.83;;;2.90;;
14209;SDS011;7188;56.070;12.698;2023-04-25T11:06:34;12.53;;;2.90;;
14209;SDS011;7188;56.070;12.698;2023-04-25T11:09:11;8.33;;;2.10;;
14209;SDS011;7188;56.070;12.698;2023-04-25T11:11:38;17.87;;;3.80;;
14209;SDS011;7188;56.070;12.698;2023-04-25T11:14:04;14.23;;;2.93;;
14209;SDS011;7188;56.070;12.698;2023-04-25T11:16:30;11.47;;;2.40;;
14209;SDS011;7188;56.070;12.698;2023-04-25T11:18:57;10.83;;;2.80;;
14209;SDS011;7188;56.070;12.698;2023-04-25T11:21:24;11.13;;;3.27;;
14209;SDS011;7188;56.070;12.698;2023-04-25T11:23:54;15.33;;;3.23;;
14209;SDS011;7188;56.070;12.698;2023-04-25T11:26:21;15.10;;;3.70;;
14209;SDS011;7188;56.070;12.698;2023-04-25T11:28:48;12.10;;;3.17;;
14209;SDS011;7188;56.070;12.698;2023-04-25T11:31:14;14.27;;;3.53;;
14209;SDS011;7188;56.070;12.698;2023-04-25T11:33:40;14.23;;;2.63;;
14209;SDS011;7188;56.070;12.698;2023-04-25T11:36:06;12.57;;;3.10;;
14209;SDS011;7188;56.070;12.698;2023-04-25T11:38:32;12.43;;;3.47;;
14209;SDS011;7188;56.070;12.698;2023-04-25T11:40:57;21.37;;;3.87;;
14209;SDS011;7188;56.070;12.698;2023-04-25T11:43:23;12.97;;;2.67;;
14209;SDS011;7188;56.070;12.698;2023-04-25T11:45:50;13.23;;;3.23;;
14209;SDS011;7188;56.070;12.698;2023-04-25T11:48:17;11.23;;;2.53;;
14209;SDS011;7188;56.070;12.698;2023-04-25T11:50:44;13.40;;;3.47;;
14209;SDS011;7188;56.070;12.698;2023-04-25T11:53:10;16.20;;;3.43;;
14209;SDS011;7188;56.070;12.698;2023-04-25T11:55:36;12.80;;;3.17;;
14209;SDS011;7188;56.070;12.698;2023-04-25T11:58:02;15.53;;;3.53;;
14209;SDS011;7188;56.070;12.698;2023-04-25T12:00:29;14.77;;;3.80;;
14209;SDS011;7188;56.070;12.698;2023-04-25T12:02:56;12.47;;;2.87;;
14209;SDS011;7188;56.070;12.698;2023-04-25T12:05:24;18.93;;;3.37;;
14209;SDS011;7188;56.070;12.698;2023-04-25T12:07:51;11.37;;;2.60;;
14209;SDS011;7188;56.070;12.698;2023-04-25T12:10:17;9.63;;;2.67;;
14209;SDS011;7188;56.070;12.698;2023-04-25T12:12:45;11.93;;;2.67;;
14209;SDS011;7188;56.070;12.698;2023-04-25T12:15:12;15.27;;;2.80;;
14209;SDS011;7188;56.070;12.698;2023-04-25T12:17:50;17.03;;;3.50;;
14209;SDS011;7188;56.070;12.698;2023-04-25T12:20:20;15.27;;;3.43;;
14209;SDS011;7188;56.070;12.698;2023-04-25T12:22:50;13.37;;;3.03;;
14209;SDS011;7188;56.070;12.698;2023-04-25T12:33:23;13.77;;;2.90;;
14209;SDS011;7188;56.070;12.698;2023-04-25T12:35:49;12.73;;;2.57;;
14209;SDS011;7188;56.070;12.698;2023-04-25T12:38:28;11.60;;;2.80;;
14209;SDS011;7188;56.070;12.698;2023-04-25T12:40:55;11.87;;;2.40;;
14209;SDS011;7188;56.070;12.698;2023-04-25T12:43:21;15.27;;;2.60;;
14209;SDS011;7188;56.070;12.698;2023-04-25T12:45:50;8.03;;;2.27;;
14209;SDS011;7188;56.070;12.698;2023-04-25T12:48:20;15.93;;;3.83;;
14209;SDS011;7188;56.070;12.698;2023-04-25T12:50:47;17.03;;;2.43;;
14209;SDS011;7188;56.070;12.698;2023-04-25T12:53:22;8.80;;;1.87;;
14209;SDS011;7188;56.070;12.698;2023-04-25T12:55:49;7.30;;;2.17;;
14209;SDS011;7188;56.070;12.698;2023-04-25T12:58:16;15.30;;;2.47;;
14209;SDS011;7188;56.070;12.698;2023-04-25T13:00:43;8.33;;;1.87;;
14209;SDS011;7188;56.070;12.698;2023-04-25T13:03:08;12.20;;;2.27;;
14209;SDS011;7188;56.070;12.698;2023-04-25T13:05:36;15.37;;;2.43;;
14209;SDS011;7188;56.070;12.698;2023-04-25T13:08:01;9.10;;;2.90;;
14209;SDS011;7188;56.070;12.698;2023-04-25T13:10:27;5.10;;;2.13;;
14209;SDS011;7188;56.070;12.698;2023-04-25T13:12:53;8.90;;;2.00;;
14209;SDS011;7188;56.070;12.698;2023-04-25T13:15:19;6.53;;;2.00;;
14209;SDS011;7188;56.070;12.698;2023-04-25T13:17:45;11.07;;;2.40;;
14209;SDS011;7188;56.070;12.698;2023-04-25T13:20:11;7.57;;;2.03;;
14209;SDS011;7188;56.070;12.698;2023-04-25T13:22:38;7.53;;;2.07;;
14209;SDS011;7188;56.070;12.698;2023-04-25T13:25:05;15.37;;;1.97;;
14209;SDS011;7188;56.070;12.698;2023-04-25T13:27:31;6.70;;;1.73;;
14209;SDS011;7188;56.070;12.698;2023-04-25T13:29:59;9.73;;;2.40;;
14209;SDS011;7188;56.070;12.698;2023-04-25T13:32:26;9.10;;;1.80;;
14209;SDS011;7188;56.070;12.698;2023-04-25T13:34:52;7.87;;;1.63;;
14209;SDS011;7188;56.070;12.698;2023-04-25T13:37:18;9.93;;;1.77;;
14209;SDS011;7188;56.070;12.698;2023-04-25T13:39:44;10.20;;;2.20;;
14209;SDS011;7188;56.070;12.698;2023-04-25T13:42:09;5.40;;;2.00;;
14209;SDS011;7188;56.070;12.698;2023-04-25T13:44:36;6.97;;;1.83;;
14209;SDS011;7188;56.070;12.698;2023-04-25T13:47:01;11.37;;;1.80;;
14209;SDS011;7188;56.070;12.698;2023-04-25T13:49:27;12.43;;;2.17;;
14209;SDS011;7188;56.070;12.698;2023-04-25T13:51:53;9.37;;;2.03;;
14209;SDS011;7188;56.070;12.698;2023-04-25T13:54:19;8.27;;;1.30;;
14209;SDS011;7188;56.070;12.698;2023-04-25T13:56:44;10.30;;;2.53;;
14209;SDS011;7188;56.070;12.698;2023-04-25T13:59:10;7.27;;;1.70;;
14209;SDS011;7188;56.070;12.698;2023-04-25T14:01:36;8.10;;;2.07;;
14209;SDS011;7188;56.070;12.698;2023-04-25T14:04:02;8.30;;;1.37;;
14209;SDS011;7188;56.070;12.698;2023-04-25T14:06:31;7.33;;;2.20;;
14209;SDS011;7188;56.070;12.698;2023-04-25T14:08:57;10.90;;;1.83;;
14209;SDS011;7188;56.070;12.698;2023-04-25T14:11:26;10.67;;;2.23;;
14209;SDS011;7188;56.070;12.698;2023-04-25T14:13:51;6.47;;;1.77;;
14209;SDS011;7188;56.070;12.698;2023-04-25T14:16:17;15.23;;;3.10;;
14209;SDS011;7188;56.070;12.698;2023-04-25T14:18:43;6.73;;;1.93;;
14209;SDS011;7188;56.070;12.698;2023-04-25T14:21:08;8.47;;;1.97;;
14209;SDS011;7188;56.070;12.698;2023-04-25T14:23:34;8.30;;;1.77;;
14209;SDS011;7188;56.070;12.698;2023-04-25T14:26:00;5.73;;;2.10;;
14209;SDS011;7188;56.070;12.698;2023-04-25T14:28:32;7.50;;;1.60;;
14209;SDS011;7188;56.070;12.698;2023-04-25T14:30:58;10.80;;;1.80;;
14209;SDS011;7188;56.070;12.698;2023-04-25T14:33:24;8.57;;;1.67;;
14209;SDS011;7188;56.070;12.698;2023-04-25T14:35:49;9.30;;;1.57;;
14209;SDS011;7188;56.070;12.698;2023-04-25T14:38:15;7.10;;;1.47;;
14209;SDS011;7188;56.070;12.698;2023-04-25T14:40:41;3.30;;;1.57;;
14209;SDS011;7188;56.070;12.698;2023-04-25T14:43:07;6.23;;;1.47;;
14209;SDS011;7188;56.070;12.698;2023-04-25T14:45:33;4.40;;;1.00;;
14209;SDS011;7188;56.070;12.698;2023-04-25T14:47:59;7.63;;;1.33;;
14209;SDS011;7188;56.070;12.698;2023-04-25T14:50:24;3.17;;;1.27;;
14209;SDS011;7188;56.070;12.698;2023-04-25T14:52:50;4.20;;;1.20;;
14209;SDS011;7188;56.070;12.698;2023-04-25T14:55:17;6.43;;;1.20;;
14209;SDS011;7188;56.070;12.698;2023-04-25T14:57:43;4.80;;;1.10;;
14209;SDS011;7188;56.070;12.698;2023-04-25T15:00:09;4.47;;;1.00;;
14209;SDS011;7188;56.070;12.698;2023-04-25T15:02:37;6.73;;;1.40;;
14209;SDS011;7188;56.070;12.698;2023-04-25T15:05:02;2.60;;;0.87;;